Terminal Aerodrome Forecast
Issued by NWS

Home | Current Version | Previous Version | Text Only | Print | Product List | Glossary On
Versions: 1 2 3 4 5 6 7 8 9 10 11 12 13 14 15 16 17 18 19 20 21 22 23 24 25 26 27 28 29 30
000
FTUS44 KOUN 282320
TAFCSM
TAF
KCSM 282320Z 2900/2924 09010KT 5SM -RA VCTS SCT050CB OVC100
      TEMPO 2900/2904 VRB15G25KT 4SM TSRA BKN040CB
     FM291200 17010KT P6SM BKN120=

USA.gov is the U.S. government's official web portal to all federal, state and local government web resources and services.